Waterman, Illinois
Current Conditions -  °F | °C
As of 7:35 AM on Sunday 23 Nov 2014 (Local Time) from KDKB Reporting Station
Overcast Overcast  
Wind Chill: 39°   Ceiling: 3200
Heat Index: 44°   Visibility: NA
Dew Point: 42°   Wind: 10mph
Humidity: 91%   Direction: 150°SSE
Pressure: 29.73"   Gusts: NA
Location:  41.77°N, 88.77°W
Report Text: KDKB 231335Z AUTO 15009KT OVC032 07/05 A2973 RMK AO2 T00670054 PWINO
Loading
Personal Weather Stations






























Interactive Weather Map New forecast layout! Learn more

10-Day Weather Forecast

Advertisements
Track Severe Weather on mobile